Portada
METAR-TAF:

METAR-TAF

Aeroports :

Dakar, Senegal

latitud: 14-44N, longitud: 017-30W, altitud: 27 m

Observació

L'informe es va fer fa 1 hora i 9 minuts, a les 19:00 UTC
Vent 6 kt del Nord
Temperatura 20°C
Humitat 88%
Pressió 1013 hPa
Visibilitat 10 km o més
Núvols disperses a una alçada de 1000 ft

METAR: GOOY 201900Z 36006KT 9999 SCT010 20/18 Q1013

Hora: 20:09 (20:09 UTC)

Pronòstic

L'informe es va fer fa 2 hores i 39 minuts, a les 17:30 UTC
Pronòstic vàlid del 20 a les 18 UTC al 21 a les 24 UTC
Vent 12 kt del Nord
Visibilitat 10 km o més
sense núvols per sota de 1500 mi sense presència de cumulonimbus.
Temporalment
l' 21 a les 03 UTC al 21 a les 09 UTC
Cel ennuvolat a una alçada de 800 ft

TAF: GOOY 201730Z 2018/2124 36012KT CAVOK TEMPO 2103/2109 BKN008

Observacions i pronòstics meteorològics de més de 4000 aeroports (METAR i TAF).

Les estacions disponibles són els punts grocs i vermells al mapa.

Posi el ratolí al punt desitjat per veure el nom de l'estació.

Feu clic per veure les observacions i els pronòstics meteorològics.

Per canviar el mapa: feu clic els botons verds amb una creu de color negre per apropar; al botó verd amb un guió per allunyar la imatge; o en les fletxes verdes per a mapes adjacents.


METAR-TAF: